createdAt,value
2023-04-06T00:05:50.350Z,21.00
2023-04-06T00:11:14.235Z,20.50
2023-04-06T00:16:38.397Z,20.90
2023-04-06T00:22:03.617Z,18.90
2023-04-06T00:27:27.751Z,15.40
2023-04-06T00:32:52.598Z,19.00
2023-04-06T00:38:16.954Z,17.30
2023-04-06T00:43:40.869Z,14.80
2023-04-06T00:49:05.415Z,17.80
2023-04-06T00:54:30.797Z,18.40
2023-04-06T00:59:56.470Z,17.60
2023-04-06T01:05:21.405Z,19.70
2023-04-06T01:10:51.843Z,18.30
2023-04-06T01:16:23.570Z,21.30
2023-04-06T01:22:06.499Z,25.50
2023-04-06T01:27:31.414Z,21.70
2023-04-06T01:33:12.775Z,22.40
2023-04-06T01:44:26.932Z,20.10
2023-04-06T01:50:00.279Z,20.60
2023-04-06T01:55:25.116Z,24.90
2023-04-06T02:01:05.160Z,25.20
2023-04-06T02:06:36.906Z,25.10
2023-04-06T02:12:03.133Z,24.40
2023-04-06T02:17:28.786Z,24.00
2023-04-06T02:22:53.112Z,19.10
2023-04-06T02:28:17.793Z,23.20
2023-04-06T02:33:42.209Z,15.50
2023-04-06T02:39:08.332Z,20.10
2023-04-06T02:44:32.953Z,18.70
2023-04-06T02:49:57.145Z,20.50
2023-04-06T02:55:22.244Z,16.90
2023-04-06T03:00:46.756Z,19.70
2023-04-06T03:06:10.842Z,15.20
2023-04-06T03:11:35.466Z,14.30
2023-04-06T03:16:59.990Z,23.70
2023-04-06T03:22:24.072Z,28.10
2023-04-06T03:27:48.070Z,21.40
2023-04-06T03:33:13.490Z,21.90
2023-04-06T03:38:45.680Z,24.00
2023-04-06T03:44:11.535Z,24.40
2023-04-06T03:49:35.991Z,17.40
2023-04-06T03:55:03.909Z,17.00
2023-04-06T04:00:28.433Z,16.20
2023-04-06T04:05:52.922Z,20.90
2023-04-06T04:11:17.231Z,22.80
2023-04-06T04:16:44.988Z,19.50
2023-04-06T04:22:09.520Z,21.30
2023-04-06T04:27:36.391Z,22.60
2023-04-06T04:33:01.025Z,17.90
2023-04-06T04:38:26.023Z,18.90
2023-04-06T04:43:52.215Z,22.00
2023-04-06T04:49:20.308Z,20.20
2023-04-06T04:54:48.469Z,20.80
2023-04-06T05:00:18.940Z,18.30
2023-04-06T05:05:43.644Z,19.30
2023-04-06T05:11:07.995Z,17.30
2023-04-06T05:17:34.303Z,15.10
2023-04-06T05:23:07.124Z,16.00
2023-04-06T05:28:32.467Z,14.30
2023-04-06T05:33:58.651Z,17.70
2023-04-06T05:39:29.573Z,16.70
2023-04-06T05:44:54.938Z,23.10
2023-04-06T05:50:20.109Z,17.60
2023-04-06T05:55:46.767Z,17.20
2023-04-06T06:01:17.106Z,19.00
2023-04-06T06:06:43.911Z,22.40
2023-04-06T06:12:23.531Z,20.70
2023-04-06T06:17:47.754Z,22.30
2023-04-06T06:23:12.166Z,25.00
2023-04-06T06:28:37.571Z,21.80
2023-04-06T06:34:03.211Z,23.40
2023-04-06T06:39:30.366Z,21.40
2023-04-06T06:44:55.698Z,24.40
2023-04-06T06:50:22.263Z,24.40
2023-04-06T06:55:47.009Z,28.20
2023-04-06T07:01:11.972Z,26.00
2023-04-06T07:06:37.805Z,27.30
2023-04-06T07:12:03.344Z,27.40
2023-04-06T07:17:28.087Z,29.20
2023-04-06T07:22:52.308Z,31.60
2023-04-06T07:28:16.899Z,28.80
2023-04-06T07:33:41.729Z,24.50
2023-04-06T07:39:06.531Z,24.70
2023-04-06T07:44:32.107Z,23.00
2023-04-06T07:49:59.831Z,28.50
2023-04-06T07:55:24.051Z,23.30
2023-04-06T08:00:48.402Z,20.30
2023-04-06T08:06:12.655Z,21.50
2023-04-06T08:11:37.195Z,19.60
2023-04-06T08:17:01.792Z,18.60
2023-04-06T08:22:25.692Z,16.40
2023-04-06T08:27:49.947Z,21.90
2023-04-06T08:33:14.091Z,19.10
2023-04-06T08:38:38.176Z,19.60
2023-04-06T08:44:04.740Z,11.20
2023-04-06T08:49:29.630Z,17.70
2023-04-06T08:54:54.065Z,15.70
2023-04-06T09:00:19.243Z,16.50
2023-04-06T09:05:43.497Z,12.50
2023-04-06T09:11:08.214Z,16.40
2023-04-06T09:16:41.344Z,15.20
2023-04-06T09:22:08.692Z,12.10
2023-04-06T09:27:40.042Z,11.40
2023-04-06T09:33:04.298Z,9.00
2023-04-06T09:38:28.428Z,8.30
2023-04-06T09:43:54.548Z,8.90
2023-04-06T09:49:20.857Z,9.30
2023-04-06T09:54:47.946Z,10.00
2023-04-06T10:00:19.243Z,10.70
2023-04-06T10:05:54.948Z,11.00
2023-04-06T10:11:19.683Z,11.80
2023-04-06T10:16:44.770Z,8.50
2023-04-06T10:22:14.513Z,14.10
2023-04-06T10:27:38.671Z,8.70
2023-04-06T10:33:22.813Z,10.60
2023-04-06T10:38:47.080Z,11.30
2023-04-06T10:44:23.094Z,9.00
2023-04-06T10:49:48.218Z,12.40
2023-04-06T10:55:16.356Z,8.80
2023-04-06T11:00:51.114Z,7.20
2023-04-06T11:06:28.860Z,7.10
2023-04-06T11:11:53.964Z,8.40
2023-04-06T11:17:18.201Z,10.00
2023-04-06T11:23:09.221Z,9.50
2023-04-06T11:28:33.676Z,7.20
2023-04-06T11:33:58.940Z,12.90
2023-04-06T11:39:25.264Z,8.50
2023-04-06T11:44:52.788Z,10.30
2023-04-06T11:50:17.558Z,9.60
2023-04-06T11:55:42.427Z,9.40
2023-04-06T12:01:07.755Z,13.60
2023-04-06T12:07:34.988Z,9.50
2023-04-06T12:12:59.890Z,8.20
2023-04-06T12:18:24.416Z,7.20
2023-04-06T12:23:49.181Z,8.00
2023-04-06T12:29:14.785Z,7.20
2023-04-06T12:34:40.409Z,8.10
2023-04-06T12:40:05.592Z,8.50
2023-04-06T12:45:30.080Z,7.00
2023-04-06T12:51:02.632Z,8.00
2023-04-06T13:01:52.497Z,8.30
2023-04-06T13:07:18.596Z,7.90
2023-04-06T13:12:43.147Z,7.30
2023-04-06T13:18:08.088Z,7.10
2023-04-06T13:23:32.449Z,8.30
2023-04-06T13:28:58.101Z,6.20
2023-04-06T13:34:22.771Z,7.70
2023-04-06T13:39:48.593Z,8.40
2023-04-06T13:45:13.409Z,9.10
2023-04-06T13:50:38.306Z,11.10
2023-04-06T13:56:02.723Z,10.30
2023-04-06T14:01:27.970Z,9.10
2023-04-06T14:06:52.219Z,8.90
2023-04-06T14:12:16.879Z,7.90
2023-04-06T14:17:41.596Z,7.40
2023-04-06T14:23:05.927Z,8.80
2023-04-06T14:28:30.195Z,8.20
2023-04-06T14:33:54.544Z,6.90
2023-04-06T14:39:19.154Z,9.00
2023-04-06T14:44:47.545Z,10.10
2023-04-06T14:50:12.536Z,6.70
2023-04-06T14:55:42.757Z,13.10
2023-04-06T15:01:07.906Z,7.70
2023-04-06T15:06:32.268Z,7.70
2023-04-06T15:11:57.173Z,7.70
2023-04-06T15:17:22.264Z,8.30
2023-04-06T15:22:46.882Z,8.10
2023-04-06T15:28:11.331Z,9.20
2023-04-06T15:33:35.242Z,8.00
2023-04-06T15:39:00.213Z,6.80
2023-04-06T15:44:25.558Z,11.10
2023-04-06T15:49:51.070Z,11.40
2023-04-06T15:55:16.173Z,28.10
2023-04-06T16:00:40.484Z,23.80
2023-04-06T16:06:08.897Z,14.40
2023-04-06T16:11:33.545Z,9.30
2023-04-06T16:16:59.611Z,10.00
2023-04-06T16:22:25.469Z,8.10
2023-04-06T16:27:52.382Z,10.50
2023-04-06T16:33:20.871Z,24.50
2023-04-06T16:38:45.082Z,14.40
2023-04-06T16:44:11.369Z,7.10
2023-04-06T16:49:35.881Z,7.90
2023-04-06T16:55:01.157Z,17.60
2023-04-06T17:00:25.978Z,10.70
2023-04-06T17:05:50.623Z,11.20
2023-04-06T17:11:20.012Z,7.50
2023-04-06T17:16:48.303Z,8.30
2023-04-06T17:22:27.129Z,8.00
2023-04-06T17:28:03.559Z,10.50
2023-04-06T17:33:30.517Z,8.60
2023-04-06T17:38:55.745Z,7.10
2023-04-06T17:44:20.068Z,10.20
2023-04-06T17:49:44.455Z,7.60
2023-04-06T17:55:09.322Z,10.40
2023-04-06T18:00:34.193Z,8.00
2023-04-06T18:05:58.306Z,8.10
2023-04-06T18:11:23.569Z,6.70
2023-04-06T18:16:47.944Z,8.80
2023-04-06T18:22:18.239Z,9.00
2023-04-06T18:27:55.335Z,8.40
2023-04-06T18:33:36.488Z,10.80
2023-04-06T18:39:13.575Z,7.60
2023-04-06T18:44:38.154Z,7.80
2023-04-06T18:50:02.527Z,6.60
2023-04-06T18:55:27.137Z,8.90
2023-04-06T19:00:51.449Z,6.30
2023-04-06T19:06:16.283Z,6.40
2023-04-06T19:11:41.028Z,7.20
2023-04-06T19:17:07.964Z,6.10
2023-04-06T19:22:35.889Z,9.10
2023-04-06T19:28:00.740Z,10.80
2023-04-06T19:33:25.551Z,10.50
2023-04-06T19:38:50.749Z,9.60
2023-04-06T19:44:16.666Z,11.90
2023-04-06T19:49:41.099Z,19.10
2023-04-06T19:55:05.603Z,12.40
2023-04-06T20:00:31.408Z,14.20
2023-04-06T20:05:55.626Z,12.20
2023-04-06T20:11:21.664Z,15.20
2023-04-06T20:16:46.387Z,15.20
2023-04-06T20:22:10.799Z,18.60
2023-04-06T20:27:35.023Z,17.60
2023-04-06T20:32:59.270Z,17.50
2023-04-06T20:38:32.332Z,20.90
2023-04-06T20:43:57.811Z,19.10
2023-04-06T20:49:24.874Z,19.90
2023-04-06T20:54:50.910Z,20.80
2023-04-06T21:00:16.168Z,18.90
2023-04-06T21:05:40.232Z,18.70
2023-04-06T21:11:05.414Z,21.80
2023-04-06T21:16:30.221Z,21.10
2023-04-06T21:21:55.422Z,24.80
2023-04-06T21:27:19.463Z,21.00
2023-04-06T21:32:43.653Z,23.80
2023-04-06T21:38:09.483Z,24.60
2023-04-06T21:43:34.281Z,19.80
2023-04-06T21:49:00.253Z,19.50
2023-04-06T21:54:24.691Z,23.70
2023-04-06T21:59:48.593Z,23.50
2023-04-06T22:05:13.567Z,23.70
2023-04-06T22:10:39.112Z,18.80
2023-04-06T22:16:04.328Z,19.10
2023-04-06T22:21:29.716Z,26.30
2023-04-06T22:26:54.109Z,27.90
2023-04-06T22:32:18.603Z,26.60
2023-04-06T22:37:43.951Z,31.20
2023-04-06T22:43:08.221Z,39.10
2023-04-06T22:48:32.256Z,39.90
2023-04-06T22:53:56.941Z,41.10
2023-04-06T22:59:21.400Z,48.60
2023-04-06T23:04:48.069Z,34.80
2023-04-06T23:10:12.204Z,34.80
2023-04-06T23:15:36.725Z,33.20
2023-04-06T23:21:01.286Z,31.90
2023-04-06T23:26:27.431Z,39.00
2023-04-06T23:31:52.071Z,45.90
2023-04-06T23:37:15.993Z,45.70
2023-04-06T23:42:39.775Z,56.50
2023-04-06T23:48:04.241Z,57.60
2023-04-06T23:53:28.640Z,58.40
2023-04-06T23:58:53.829Z,55.10
